Time;durP1;ratioP1;P1;durP2;ratioP2;P2;SDS_P1;SDS_P2;PMS_P1;PMS_P2;Temp;Humidity;BMP_temperature;BMP_pressure;BME280_temperature;BME280_humidity;BME280_pressure;Samples;Min_cycle;Max_cycle;Signal;HPM_P1;HPM_P2
2022/07/24 00:02:07;;;;;;;24.75;14.95;;;;;;;;;;5034610;28;20249;-70
2022/07/24 00:04:33;;;;;;;21.20;15.48;;;;;;;;;;5018064;28;20640;-70
2022/07/24 00:06:59;;;;;;;20.30;14.95;;;;;;;;;;5027952;28;20192;-71
2022/07/24 00:09:25;;;;;;;20.65;15.43;;;;;;;;;;5027012;28;20184;-70
2022/07/24 00:11:52;;;;;;;22.90;15.93;;;;;;;;;;5031160;28;20188;-70
2022/07/24 00:14:18;;;;;;;24.63;16.75;;;;;;;;;;5030143;28;20668;-70
2022/07/24 00:16:44;;;;;;;25.83;17.85;;;;;;;;;;5032953;28;20294;-70
2022/07/24 00:19:10;;;;;;;20.63;17.25;;;;;;;;;;5031819;28;20192;-69
2022/07/24 00:21:36;;;;;;;29.42;17.02;;;;;;;;;;5032842;28;20180;-70
2022/07/24 00:24:02;;;;;;;22.70;16.70;;;;;;;;;;5037945;28;20184;-69
2022/07/24 00:26:29;;;;;;;25.95;17.05;;;;;;;;;;5033641;28;20194;-71
2022/07/24 00:28:55;;;;;;;24.77;17.00;;;;;;;;;;5032205;28;20198;-66
2022/07/24 00:31:21;;;;;;;22.42;17.35;;;;;;;;;;5033920;28;20183;-71
2022/07/24 00:33:48;;;;;;;23.20;18.20;;;;;;;;;;5031044;28;20184;-71
2022/07/24 00:36:14;;;;;;;27.05;17.95;;;;;;;;;;5031481;28;20281;-71
2022/07/24 00:38:41;;;;;;;28.05;17.55;;;;;;;;;;5046307;28;20203;-70
2022/07/24 00:41:07;;;;;;;31.00;17.75;;;;;;;;;;5032669;28;20179;-71
2022/07/24 00:43:33;;;;;;;29.13;17.65;;;;;;;;;;5031605;28;20648;-70
2022/07/24 00:45:59;;;;;;;24.88;17.05;;;;;;;;;;5032918;28;20547;-71
2022/07/24 00:48:26;;;;;;;24.58;17.92;;;;;;;;;;5045048;28;20593;-70
2022/07/24 00:50:52;;;;;;;23.88;17.50;;;;;;;;;;5024167;28;20240;-69
2022/07/24 00:53:18;;;;;;;23.10;16.10;;;;;;;;;;5027437;28;20191;-71
2022/07/24 00:55:45;;;;;;;22.52;16.40;;;;;;;;;;5024520;28;20215;-71
2022/07/24 00:58:12;;;;;;;21.85;15.48;;;;;;;;;;5035293;28;20601;-69
2022/07/24 01:00:38;;;;;;;18.80;14.10;;;;;;;;;;5040693;28;20636;-70
2022/07/24 01:03:04;;;;;;;19.60;15.00;;;;;;;;;;5035625;28;20180;-71
2022/07/24 01:05:31;;;;;;;24.20;14.43;;;;;;;;;;5034925;28;20196;-70
2022/07/24 01:07:57;;;;;;;20.70;14.18;;;;;;;;;;5034106;28;20295;-70
2022/07/24 01:10:23;;;;;;;22.60;14.02;;;;;;;;;;5034749;28;20554;-70
2022/07/24 01:12:49;;;;;;;19.88;13.55;;;;;;;;;;5039127;28;20271;-69
2022/07/24 01:15:15;;;;;;;22.15;13.85;;;;;;;;;;5036255;28;20211;-70
2022/07/24 01:17:42;;;;;;;19.05;13.18;;;;;;;;;;5027926;28;20218;-66
2022/07/24 01:20:09;;;;;;;25.38;12.68;;;;;;;;;;5032825;28;20198;-69
2022/07/24 01:22:35;;;;;;;19.58;12.30;;;;;;;;;;5038917;28;20187;-66
2022/07/24 01:25:01;;;;;;;19.75;12.18;;;;;;;;;;5035431;28;20266;-70
2022/07/24 01:27:27;;;;;;;20.77;12.43;;;;;;;;;;5035897;28;20404;-70
2022/07/24 01:29:54;;;;;;;16.52;11.95;;;;;;;;;;5034082;28;20257;-71
2022/07/24 01:32:20;;;;;;;14.85;10.95;;;;;;;;;;5036657;28;20651;-70
2022/07/24 01:34:46;;;;;;;17.10;11.00;;;;;;;;;;5031128;28;20187;-70
2022/07/24 01:37:12;;;;;;;17.38;11.05;;;;;;;;;;5051028;28;20261;-70
2022/07/24 01:39:38;;;;;;;15.38;10.65;;;;;;;;;;5049107;28;20736;-67
2022/07/24 01:42:04;;;;;;;18.83;10.70;;;;;;;;;;5035499;28;20530;-70
2022/07/24 01:44:31;;;;;;;16.58;10.68;;;;;;;;;;5032624;28;20224;-69
2022/07/24 01:46:57;;;;;;;21.25;10.27;;;;;;;;;;5049586;28;20179;-68
2022/07/24 01:49:23;;;;;;;16.65;10.35;;;;;;;;;;5033237;28;20249;-68
2022/07/24 01:51:50;;;;;;;20.60;10.15;;;;;;;;;;5050998;28;20191;-69
2022/07/24 01:54:16;;;;;;;17.67;10.15;;;;;;;;;;5047163;28;20617;-68
2022/07/24 01:56:42;;;;;;;14.65;9.10;;;;;;;;;;5033066;28;20243;-67
2022/07/24 01:59:08;;;;;;;13.52;9.55;;;;;;;;;;5032671;28;20188;-67
2022/07/24 02:01:36;;;;;;;17.45;10.20;;;;;;;;;;5036168;28;20554;-69
2022/07/24 02:04:02;;;;;;;14.63;9.00;;;;;;;;;;5026239;28;20267;-68
2022/07/24 02:06:28;;;;;;;15.73;9.18;;;;;;;;;;5055410;28;20252;-71
2022/07/24 02:08:55;;;;;;;12.90;9.27;;;;;;;;;;5025211;28;20212;-71
2022/07/24 02:11:21;;;;;;;17.77;9.25;;;;;;;;;;5035463;28;20241;-71
2022/07/24 02:13:47;;;;;;;12.85;8.68;;;;;;;;;;5032363;28;20187;-72
2022/07/24 02:16:13;;;;;;;13.93;9.07;;;;;;;;;;5033988;28;20215;-72
2022/07/24 02:18:40;;;;;;;13.98;8.85;;;;;;;;;;5033524;28;20242;-71
2022/07/24 02:21:06;;;;;;;15.02;8.55;;;;;;;;;;5034044;28;20218;-73
2022/07/24 02:23:33;;;;;;;16.98;8.63;;;;;;;;;;5046788;28;20188;-72
2022/07/24 02:25:59;;;;;;;13.23;8.63;;;;;;;;;;5037907;28;20188;-73
2022/07/24 02:28:26;;;;;;;15.52;9.43;;;;;;;;;;5031372;28;20190;-70
2022/07/24 02:30:52;;;;;;;17.15;9.05;;;;;;;;;;5033906;28;20191;-72
2022/07/24 02:33:19;;;;;;;19.30;9.27;;;;;;;;;;5032536;28;20318;-68
2022/07/24 02:35:45;;;;;;;17.55;9.57;;;;;;;;;;5038151;28;20247;-72
2022/07/24 02:38:11;;;;;;;15.57;9.48;;;;;;;;;;5032509;28;20191;-72
2022/07/24 02:40:38;;;;;;;18.50;8.80;;;;;;;;;;5034337;28;20210;-73
2022/07/24 02:43:04;;;;;;;16.17;10.00;;;;;;;;;;5032887;28;20719;-72
2022/07/24 02:45:30;;;;;;;14.40;9.63;;;;;;;;;;5041059;28;20293;-72
2022/07/24 02:47:58;;;;;;;19.48;10.32;;;;;;;;;;5031432;28;20672;-73
2022/07/24 02:50:29;;;;;;;14.95;9.43;;;;;;;;;;5035257;28;20211;-72
2022/07/24 02:52:55;;;;;;;18.95;9.57;;;;;;;;;;5032130;28;20179;-69
2022/07/24 02:55:21;;;;;;;16.42;9.60;;;;;;;;;;5038530;28;20710;-70
2022/07/24 02:57:47;;;;;;;18.02;10.35;;;;;;;;;;5040935;28;20591;-72
2022/07/24 03:00:15;;;;;;;14.75;8.55;;;;;;;;;;5050025;28;20187;-71
2022/07/24 03:02:41;;;;;;;15.52;9.13;;;;;;;;;;5044723;28;20263;-71
2022/07/24 03:05:08;;;;;;;18.23;9.45;;;;;;;;;;5033064;28;20222;-70
2022/07/24 03:07:36;;;;;;;17.38;9.43;;;;;;;;;;5033621;28;20179;-64
2022/07/24 03:10:03;;;;;;;17.52;9.07;;;;;;;;;;5032795;28;20191;-72
2022/07/24 03:12:29;;;;;;;14.27;9.15;;;;;;;;;;5034511;28;20204;-69
2022/07/24 03:14:55;;;;;;;16.05;8.75;;;;;;;;;;5031400;28;20671;-71
2022/07/24 03:17:21;;;;;;;20.42;8.43;;;;;;;;;;5044267;28;20191;-71
2022/07/24 03:19:48;;;;;;;12.55;8.10;;;;;;;;;;5031585;28;20180;-70
2022/07/24 03:22:14;;;;;;;14.88;8.60;;;;;;;;;;5033889;28;20266;-69
2022/07/24 03:24:40;;;;;;;11.35;7.72;;;;;;;;;;5032313;28;20298;-69
2022/07/24 03:27:07;;;;;;;18.88;8.43;;;;;;;;;;5034467;28;20187;-70
2022/07/24 03:29:33;;;;;;;15.18;8.55;;;;;;;;;;5048034;28;20560;-70
2022/07/24 03:31:59;;;;;;;17.75;9.25;;;;;;;;;;5048039;28;20707;-69
2022/07/24 03:34:26;;;;;;;18.75;9.00;;;;;;;;;;5030914;28;20230;-69
2022/07/24 03:36:52;;;;;;;14.65;9.40;;;;;;;;;;5033576;28;20224;-70
2022/07/24 03:39:18;;;;;;;19.58;9.95;;;;;;;;;;5032195;28;20234;-69
2022/07/24 03:41:44;;;;;;;14.85;9.50;;;;;;;;;;5034381;28;20187;-72
2022/07/24 03:44:10;;;;;;;15.38;10.18;;;;;;;;;;5037837;28;20199;-71
2022/07/24 03:46:36;;;;;;;20.67;11.40;;;;;;;;;;5048642;28;20183;-72
2022/07/24 03:49:03;;;;;;;18.23;11.30;;;;;;;;;;5030465;28;20188;-72
2022/07/24 03:51:29;;;;;;;19.95;11.50;;;;;;;;;;5033266;28;20183;-72
2022/07/24 03:53:55;;;;;;;21.13;11.70;;;;;;;;;;5032529;28;20184;-71
2022/07/24 03:56:22;;;;;;;18.33;11.43;;;;;;;;;;5032212;28;20219;-68
2022/07/24 03:58:48;;;;;;;18.75;11.18;;;;;;;;;;5028666;28;20191;-70
2022/07/24 04:01:14;;;;;;;20.73;11.15;;;;;;;;;;5032431;28;20180;-70
2022/07/24 04:03:41;;;;;;;19.13;11.55;;;;;;;;;;5032579;28;20184;-68
2022/07/24 04:06:07;;;;;;;21.17;11.70;;;;;;;;;;5033003;28;20183;-70
2022/07/24 04:08:34;;;;;;;18.15;11.65;;;;;;;;;;5046156;28;20191;-68
2022/07/24 04:11:00;;;;;;;17.00;10.80;;;;;;;;;;5047533;28;20282;-70
2022/07/24 04:13:27;;;;;;;18.33;10.68;;;;;;;;;;5032125;28;20199;-71
2022/07/24 04:15:53;;;;;;;21.70;11.07;;;;;;;;;;5027048;28;20215;-70
2022/07/24 04:18:20;;;;;;;20.63;12.05;;;;;;;;;;5030669;28;20245;-70
2022/07/24 04:20:46;;;;;;;16.95;11.10;;;;;;;;;;5033173;28;20230;-70
2022/07/24 04:23:12;;;;;;;18.58;11.55;;;;;;;;;;5029873;28;20176;-70
2022/07/24 04:25:39;;;;;;;17.83;10.63;;;;;;;;;;5033153;28;20191;-68
2022/07/24 04:28:06;;;;;;;17.75;10.57;;;;;;;;;;5027964;28;20218;-68
2022/07/24 04:30:32;;;;;;;18.25;10.18;;;;;;;;;;5032554;28;20237;-69
2022/07/24 04:32:58;;;;;;;21.38;10.27;;;;;;;;;;5029287;28;20184;-67
2022/07/24 04:35:25;;;;;;;21.73;10.35;;;;;;;;;;5030089;28;20239;-67
2022/07/24 04:37:53;;;;;;;16.45;10.45;;;;;;;;;;5045046;28;20730;-65
2022/07/24 04:40:19;;;;;;;17.52;10.35;;;;;;;;;;5033268;28;20238;-67
2022/07/24 04:42:45;;;;;;;17.42;9.63;;;;;;;;;;5029869;28;20258;-65
2022/07/24 04:45:12;;;;;;;13.63;9.68;;;;;;;;;;5047118;28;20267;-67
2022/07/24 04:47:38;;;;;;;13.68;9.27;;;;;;;;;;5029541;28;20253;-67
2022/07/24 04:50:05;;;;;;;19.42;10.10;;;;;;;;;;5031554;28;20188;-68
2022/07/24 04:52:32;;;;;;;16.63;9.32;;;;;;;;;;5030850;28;20262;-69
2022/07/24 04:54:58;;;;;;;14.30;8.73;;;;;;;;;;5029793;28;20291;-67
2022/07/24 04:57:24;;;;;;;12.48;8.80;;;;;;;;;;5047715;28;20246;-69
2022/07/24 04:59:51;;;;;;;17.80;8.98;;;;;;;;;;5037031;28;20210;-68
2022/07/24 05:02:17;;;;;;;14.68;8.07;;;;;;;;;;5032671;28;20198;-69
2022/07/24 05:04:43;;;;;;;14.27;8.45;;;;;;;;;;5030514;28;20578;-66
2022/07/24 05:07:09;;;;;;;15.05;7.90;;;;;;;;;;5047416;28;20270;-66
2022/07/24 05:09:35;;;;;;;13.13;7.70;;;;;;;;;;5028825;28;20184;-68
2022/07/24 05:12:02;;;;;;;11.88;7.88;;;;;;;;;;5029378;28;20191;-67
2022/07/24 05:14:28;;;;;;;12.35;7.05;;;;;;;;;;5043853;28;20317;-68
2022/07/24 05:16:54;;;;;;;12.38;7.20;;;;;;;;;;5027169;28;20281;-67
2022/07/24 05:19:20;;;;;;;11.25;6.55;;;;;;;;;;5040528;28;20191;-66
2022/07/24 05:21:46;;;;;;;12.65;6.68;;;;;;;;;;5027867;28;20249;-70
2022/07/24 05:24:12;;;;;;;14.10;6.13;;;;;;;;;;5029447;28;20262;-68
2022/07/24 05:26:39;;;;;;;10.85;6.75;;;;;;;;;;5030907;28;20193;-69
2022/07/24 05:29:06;;;;;;;14.60;6.65;;;;;;;;;;5044379;28;20196;-71
2022/07/24 05:31:33;;;;;;;10.38;6.47;;;;;;;;;;5047128;28;20202;-70
2022/07/24 05:34:01;;;;;;;10.82;5.82;;;;;;;;;;5029681;28;20184;-71
2022/07/24 05:36:28;;;;;;;9.27;5.82;;;;;;;;;;5031471;28;20223;-68
2022/07/24 05:38:54;;;;;;;9.55;5.60;;;;;;;;;;5030510;28;20198;-69
2022/07/24 05:41:20;;;;;;;10.10;5.30;;;;;;;;;;5038621;28;20235;-68
2022/07/24 05:43:47;;;;;;;10.07;5.35;;;;;;;;;;5030952;28;20676;-68
2022/07/24 05:46:13;;;;;;;8.75;5.32;;;;;;;;;;5034532;28;20282;-67
2022/07/24 05:48:39;;;;;;;10.32;5.10;;;;;;;;;;5031676;28;20598;-67
2022/07/24 05:51:05;;;;;;;10.73;5.38;;;;;;;;;;5023022;28;20675;-67
2022/07/24 05:53:31;;;;;;;8.50;4.57;;;;;;;;;;5027350;28;20192;-68
2022/07/24 05:55:57;;;;;;;5.90;4.20;;;;;;;;;;5041908;28;20216;-68
2022/07/24 05:58:23;;;;;;;8.02;4.10;;;;;;;;;;5046241;28;20199;-69
2022/07/24 06:00:49;;;;;;;11.27;4.70;;;;;;;;;;5033916;28;20192;-69
2022/07/24 06:03:15;;;;;;;6.57;4.13;;;;;;;;;;5033470;28;20184;-67
2022/07/24 06:05:42;;;;;;;7.35;4.43;;;;;;;;;;5033196;28;20188;-68
2022/07/24 06:08:08;;;;;;;9.38;3.90;;;;;;;;;;5047730;28;20195;-66
2022/07/24 06:10:34;;;;;;;8.05;3.88;;;;;;;;;;5033086;28;20198;-67
2022/07/24 06:13:01;;;;;;;6.70;3.65;;;;;;;;;;5033911;28;20180;-68
2022/07/24 06:15:28;;;;;;;7.97;3.60;;;;;;;;;;5034649;28;20636;-68
2022/07/24 06:17:55;;;;;;;6.85;3.50;;;;;;;;;;5046922;28;20286;-67
2022/07/24 06:20:21;;;;;;;7.78;3.63;;;;;;;;;;5032788;28;20188;-68
2022/07/24 06:22:47;;;;;;;8.85;3.13;;;;;;;;;;5045276;28;20188;-67
2022/07/24 06:25:14;;;;;;;6.00;3.50;;;;;;;;;;5035094;28;20216;-67
2022/07/24 06:27:43;;;;;;;7.22;3.50;;;;;;;;;;5033133;28;20180;-66
2022/07/24 06:30:13;;;;;;;6.00;3.20;;;;;;;;;;5050504;28;20195;-67
2022/07/24 06:32:40;;;;;;;6.95;3.58;;;;;;;;;;5040452;28;20183;-67
2022/07/24 06:35:07;;;;;;;5.50;3.40;;;;;;;;;;5033688;28;20183;-68
2022/07/24 06:37:33;;;;;;;5.72;3.55;;;;;;;;;;5048078;28;20211;-68
2022/07/24 06:39:59;;;;;;;7.13;3.25;;;;;;;;;;5030333;28;20196;-68
2022/07/24 06:42:25;;;;;;;7.30;3.28;;;;;;;;;;5049365;28;20595;-70
2022/07/24 06:44:52;;;;;;;4.45;3.10;;;;;;;;;;5033971;28;20230;-69
2022/07/24 06:47:18;;;;;;;5.25;3.25;;;;;;;;;;5032185;28;20199;-68
2022/07/24 06:49:44;;;;;;;5.32;2.95;;;;;;;;;;5033994;28;20188;-67
2022/07/24 06:52:10;;;;;;;7.03;3.25;;;;;;;;;;5038612;28;20191;-68
2022/07/24 06:54:36;;;;;;;5.38;2.90;;;;;;;;;;5037290;28;20292;-70
2022/07/24 06:57:02;;;;;;;6.30;3.08;;;;;;;;;;5039951;28;20219;-73
2022/07/24 06:59:29;;;;;;;6.82;3.17;;;;;;;;;;5030859;28;20184;-63
2022/07/24 07:01:56;;;;;;;6.03;3.05;;;;;;;;;;5049289;28;20180;-65
2022/07/24 07:04:22;;;;;;;4.43;3.20;;;;;;;;;;5031721;28;20184;-65
2022/07/24 07:06:48;;;;;;;4.70;2.78;;;;;;;;;;5047876;28;20210;-65
2022/07/24 07:09:14;;;;;;;4.38;2.75;;;;;;;;;;5029575;28;20188;-64
2022/07/24 07:11:40;;;;;;;8.30;3.17;;;;;;;;;;5033878;28;20234;-72
2022/07/24 07:14:07;;;;;;;4.95;3.22;;;;;;;;;;5047179;28;20187;-70
2022/07/24 07:16:33;;;;;;;5.55;2.92;;;;;;;;;;5039654;28;20251;-62
2022/07/24 07:18:59;;;;;;;5.22;2.95;;;;;;;;;;5038632;28;20184;-61
2022/07/24 07:21:25;;;;;;;5.10;2.83;;;;;;;;;;5033793;28;20184;-65
2022/07/24 07:23:52;;;;;;;6.05;2.88;;;;;;;;;;5032384;28;20188;-65
2022/07/24 07:26:18;;;;;;;7.00;3.25;;;;;;;;;;5030731;28;20230;-66
2022/07/24 07:28:46;;;;;;;6.22;2.60;;;;;;;;;;5047425;28;20220;-66
2022/07/24 07:31:12;;;;;;;3.60;2.60;;;;;;;;;;5032691;28;20192;-65
2022/07/24 07:33:38;;;;;;;4.63;3.15;;;;;;;;;;5031685;28;20190;-62
2022/07/24 07:36:05;;;;;;;4.65;2.97;;;;;;;;;;5031669;28;20285;-64
2022/07/24 07:38:31;;;;;;;4.47;2.53;;;;;;;;;;5034369;28;20245;-65
2022/07/24 07:40:57;;;;;;;4.68;2.75;;;;;;;;;;5032549;28;20595;-66
2022/07/24 07:43:23;;;;;;;4.63;2.60;;;;;;;;;;5032116;28;20196;-67
2022/07/24 07:45:50;;;;;;;4.60;2.72;;;;;;;;;;5034145;28;20202;-66
2022/07/24 07:48:17;;;;;;;4.03;2.83;;;;;;;;;;5027674;28;20172;-65
2022/07/24 07:50:44;;;;;;;6.05;3.10;;;;;;;;;;5033263;28;20237;-65
2022/07/24 07:53:10;;;;;;;4.30;2.72;;;;;;;;;;5033167;28;20257;-64
2022/07/24 07:55:37;;;;;;;4.93;2.83;;;;;;;;;;5050166;28;20216;-65
2022/07/24 07:58:05;;;;;;;3.17;2.35;;;;;;;;;;5030291;28;20179;-64
2022/07/24 08:00:31;;;;;;;8.02;2.90;;;;;;;;;;5032079;28;20279;-66
2022/07/24 08:02:58;;;;;;;4.25;2.70;;;;;;;;;;5045129;28;20615;-62
2022/07/24 08:05:24;;;;;;;3.63;2.70;;;;;;;;;;5031677;28;20213;-63
2022/07/24 08:07:50;;;;;;;3.05;2.58;;;;;;;;;;5044283;28;20190;-63
2022/07/24 08:10:16;;;;;;;6.03;2.17;;;;;;;;;;5047685;28;20282;-63
2022/07/24 08:12:43;;;;;;;4.75;2.17;;;;;;;;;;5043634;28;20262;-62
2022/07/24 08:15:10;;;;;;;4.20;2.33;;;;;;;;;;5032904;28;20218;-60
2022/07/24 08:17:36;;;;;;;6.28;2.47;;;;;;;;;;5032006;28;20196;-61
2022/07/24 08:20:03;;;;;;;4.75;2.60;;;;;;;;;;5032583;28;20656;-64
2022/07/24 08:22:29;;;;;;;3.63;2.58;;;;;;;;;;5034594;28;20294;-63
2022/07/24 08:24:55;;;;;;;3.90;2.50;;;;;;;;;;5031606;28;20188;-63
2022/07/24 08:27:22;;;;;;;4.35;2.50;;;;;;;;;;5032917;28;20207;-62
2022/07/24 08:29:48;;;;;;;3.55;2.17;;;;;;;;;;5031235;28;20192;-63
2022/07/24 08:32:15;;;;;;;3.13;2.10;;;;;;;;;;5031041;28;20184;-63
2022/07/24 08:34:41;;;;;;;3.50;2.42;;;;;;;;;;5028762;28;20274;-63
2022/07/24 08:37:07;;;;;;;3.17;2.20;;;;;;;;;;5032664;28;20232;-64
2022/07/24 08:39:33;;;;;;;2.80;2.15;;;;;;;;;;5045927;28;20666;-64
2022/07/24 08:41:59;;;;;;;3.78;2.53;;;;;;;;;;5031528;28;20188;-64
2022/07/24 08:44:25;;;;;;;4.22;2.40;;;;;;;;;;5040631;28;20552;-63
2022/07/24 08:46:54;;;;;;;8.05;2.15;;;;;;;;;;5048367;28;20183;-62
2022/07/24 08:49:21;;;;;;;4.07;2.67;;;;;;;;;;5047358;28;20191;-64
2022/07/24 08:51:49;;;;;;;3.88;2.60;;;;;;;;;;5032416;28;20179;-64
2022/07/24 08:54:15;;;;;;;3.25;2.30;;;;;;;;;;5036844;28;20190;-63
2022/07/24 08:56:42;;;;;;;3.22;2.33;;;;;;;;;;5052341;28;20246;-63
2022/07/24 08:59:18;;;;;;;5.20;2.50;;;;;;;;;;5036200;28;20176;-63
2022/07/24 09:01:45;;;;;;;3.72;2.58;;;;;;;;;;5043226;28;20630;-64
2022/07/24 09:04:29;;;;;;;3.35;2.28;;;;;;;;;;5036973;28;20546;-63
2022/07/24 09:06:57;;;;;;;5.03;2.10;;;;;;;;;;5032445;28;20632;-64
2022/07/24 09:09:23;;;;;;;2.95;2.10;;;;;;;;;;5037542;28;20176;-64
2022/07/24 09:11:50;;;;;;;7.75;2.70;;;;;;;;;;5052173;28;20659;-63
2022/07/24 09:14:29;;;;;;;3.13;2.30;;;;;;;;;;5049642;28;20647;-63
2022/07/24 09:17:02;;;;;;;3.53;2.25;;;;;;;;;;5050134;28;20219;-64
2022/07/24 09:19:28;;;;;;;2.45;2.03;;;;;;;;;;5033213;28;20215;-64
2022/07/24 09:21:54;;;;;;;3.22;2.20;;;;;;;;;;5036026;28;20192;-64
2022/07/24 09:24:21;;;;;;;6.28;2.78;;;;;;;;;;5055954;28;20289;-63
2022/07/24 09:26:49;;;;;;;3.72;2.25;;;;;;;;;;5056249;28;20186;-64
2022/07/24 09:29:16;;;;;;;5.07;2.60;;;;;;;;;;5040209;28;20180;-64
2022/07/24 09:31:51;;;;;;;4.53;2.33;;;;;;;;;;5036054;28;20203;-64
2022/07/24 09:34:17;;;;;;;3.85;2.30;;;;;;;;;;5035837;28;20210;-65
2022/07/24 09:37:05;;;;;;;4.32;2.38;;;;;;;;;;5055437;28;20235;-63
2022/07/24 09:39:32;;;;;;;5.22;2.25;;;;;;;;;;5036678;28;20865;-63
2022/07/24 09:41:58;;;;;;;3.65;2.28;;;;;;;;;;5035232;28;20639;-63
2022/07/24 09:44:25;;;;;;;4.15;2.47;;;;;;;;;;5031644;28;20188;-64
2022/07/24 09:47:02;;;;;;;3.22;2.15;;;;;;;;;;5031145;28;20220;-59
2022/07/24 09:49:29;;;;;;;7.13;2.33;;;;;;;;;;5029866;28;20184;-62
2022/07/24 09:52:10;;;;;;;3.08;2.05;;;;;;;;;;5050372;28;20530;-64
2022/07/24 09:54:37;;;;;;;4.32;1.92;;;;;;;;;;5029477;28;20180;-64
2022/07/24 09:57:17;;;;;;;3.45;2.10;;;;;;;;;;5043607;28;20211;-65
2022/07/24 09:59:46;;;;;;;8.50;2.45;;;;;;;;;;5047527;28;20184;-63
2022/07/24 10:02:14;;;;;;;3.63;2.40;;;;;;;;;;5048395;28;20251;-64
2022/07/24 10:04:42;;;;;;;6.97;2.10;;;;;;;;;;5033294;28;20207;-64
2022/07/24 10:07:10;;;;;;;5.20;2.10;;;;;;;;;;5050270;28;20180;-65
2022/07/24 10:09:36;;;;;;;3.85;2.22;;;;;;;;;;5031113;28;20195;-64
2022/07/24 10:12:04;;;;;;;4.55;2.15;;;;;;;;;;5035441;28;20176;-64
2022/07/24 10:14:30;;;;;;;2.85;1.90;;;;;;;;;;5034921;28;20763;-65
2022/07/24 10:17:05;;;;;;;2.90;2.00;;;;;;;;;;5043345;28;20285;-65
2022/07/24 10:19:38;;;;;;;4.47;2.00;;;;;;;;;;5037530;28;20218;-65
2022/07/24 10:22:09;;;;;;;4.47;1.80;;;;;;;;;;5048321;28;20194;-64
2022/07/24 10:24:45;;;;;;;5.72;1.80;;;;;;;;;;5033248;28;20187;-62
2022/07/24 10:27:21;;;;;;;5.80;1.88;;;;;;;;;;5033246;28;20194;-63
2022/07/24 10:29:49;;;;;;;4.53;1.77;;;;;;;;;;5032490;28;20289;-63
2022/07/24 10:32:15;;;;;;;5.43;1.90;;;;;;;;;;5044637;28;20183;-63
2022/07/24 10:35:04;;;;;;;6.00;2.15;;;;;;;;;;5035233;28;20207;-64
2022/07/24 10:37:37;;;;;;;3.72;1.70;;;;;;;;;;5033258;28;20752;-63
2022/07/24 10:40:18;;;;;;;3.35;1.90;;;;;;;;;;5050269;28;20203;-64
2022/07/24 10:43:03;;;;;;;2.08;1.75;;;;;;;;;;5044837;28;20552;-63
2022/07/24 10:45:30;;;;;;;6.78;1.90;;;;;;;;;;5041999;28;20298;-63
2022/07/24 10:47:57;;;;;;;2.60;1.70;;;;;;;;;;5039293;28;20191;-63
2022/07/24 10:50:23;;;;;;;4.70;1.98;;;;;;;;;;5034995;28;20628;-63
2022/07/24 10:52:49;;;;;;;4.22;2.38;;;;;;;;;;5031754;28;20184;-63
2022/07/24 10:55:36;;;;;;;2.65;1.90;;;;;;;;;;5036474;28;20206;-63
2022/07/24 10:58:04;;;;;;;4.15;1.88;;;;;;;;;;5048456;28;20638;-64
2022/07/24 11:00:34;;;;;;;4.03;1.90;;;;;;;;;;5034223;28;20175;-63
2022/07/24 11:03:01;;;;;;;2.25;1.60;;;;;;;;;;5032742;28;20650;-63
2022/07/24 11:05:30;;;;;;;1.92;1.73;;;;;;;;;;5048150;28;20202;-62
2022/07/24 11:08:33;;;;;;;3.35;1.85;;;;;;;;;;5036519;28;20648;-63
2022/07/24 11:11:05;;;;;;;3.92;1.92;;;;;;;;;;4992986;28;20224;-64
2022/07/24 11:13:34;;;;;;;3.72;2.00;;;;;;;;;;5020610;28;20234;-64
2022/07/24 11:16:16;;;;;;;3.42;1.90;;;;;;;;;;5031903;28;20647;-64
2022/07/24 11:19:03;;;;;;;3.58;2.25;;;;;;;;;;5042130;28;20187;-65
2022/07/24 11:21:36;;;;;;;5.30;2.20;;;;;;;;;;5044676;28;20187;-62
2022/07/24 11:24:24;;;;;;;4.15;2.10;;;;;;;;;;5045224;28;20183;-62
2022/07/24 11:26:53;;;;;;;4.57;2.30;;;;;;;;;;5034479;28;20183;-61
2022/07/24 11:29:24;;;;;;;5.80;2.30;;;;;;;;;;5037136;28;20226;-61
2022/07/24 11:31:54;;;;;;;4.30;2.00;;;;;;;;;;5049283;28;20195;-62
2022/07/24 11:34:20;;;;;;;6.88;2.40;;;;;;;;;;5031423;28;20183;-61
2022/07/24 11:36:48;;;;;;;4.25;2.45;;;;;;;;;;5031329;28;20236;-61
2022/07/24 11:39:14;;;;;;;3.70;2.20;;;;;;;;;;5026252;28;20188;-61
2022/07/24 11:41:45;;;;;;;6.80;2.20;;;;;;;;;;5031956;28;20230;-63
2022/07/24 11:44:11;;;;;;;4.53;2.33;;;;;;;;;;5047137;28;20554;-61
2022/07/24 11:46:39;;;;;;;4.10;2.60;;;;;;;;;;5031774;28;20180;-61
2022/07/24 11:49:09;;;;;;;6.18;2.35;;;;;;;;;;5029599;28;20211;-61
2022/07/24 11:51:45;;;;;;;2.83;2.22;;;;;;;;;;5032397;28;20190;-58
2022/07/24 11:54:12;;;;;;;4.22;2.20;;;;;;;;;;5029682;28;20191;-60
2022/07/24 11:56:38;;;;;;;5.43;2.40;;;;;;;;;;5031938;28;20214;-58
2022/07/24 11:59:05;;;;;;;4.50;2.30;;;;;;;;;;5046020;28;20183;-59
2022/07/24 12:01:31;;;;;;;4.72;2.45;;;;;;;;;;5048562;28;20188;-59
2022/07/24 12:03:58;;;;;;;3.75;2.40;;;;;;;;;;5031416;28;20326;-58
2022/07/24 12:06:26;;;;;;;4.90;2.75;;;;;;;;;;5041846;28;20187;-58
2022/07/24 12:08:57;;;;;;;5.97;2.63;;;;;;;;;;5038829;28;20532;-58
2022/07/24 12:11:23;;;;;;;4.93;2.90;;;;;;;;;;5048189;28;20183;-58
2022/07/24 12:13:53;;;;;;;5.07;2.65;;;;;;;;;;5045070;28;20551;-58
2022/07/24 12:16:24;;;;;;;4.90;2.47;;;;;;;;;;5036430;28;20213;-58
2022/07/24 12:18:50;;;;;;;6.25;2.88;;;;;;;;;;5035569;28;20190;-57
2022/07/24 12:21:18;;;;;;;5.65;2.70;;;;;;;;;;5029805;28;20187;-58
2022/07/24 12:23:47;;;;;;;3.67;2.53;;;;;;;;;;5031005;28;20546;-58
2022/07/24 12:26:13;;;;;;;7.97;2.55;;;;;;;;;;5031084;28;20241;-58
2022/07/24 12:28:40;;;;;;;4.80;2.55;;;;;;;;;;5042171;28;20187;-57
2022/07/24 12:31:08;;;;;;;4.35;2.70;;;;;;;;;;5032832;28;20179;-58
2022/07/24 12:33:34;;;;;;;7.20;2.80;;;;;;;;;;5030836;28;20195;-58
2022/07/24 12:36:15;;;;;;;4.05;2.78;;;;;;;;;;5032788;28;20306;-58
2022/07/24 12:38:42;;;;;;;5.22;2.63;;;;;;;;;;5035886;28;20183;-58
2022/07/24 12:41:13;;;;;;;4.43;2.80;;;;;;;;;;5032563;28;20191;-58
2022/07/24 12:43:50;;;;;;;7.20;2.88;;;;;;;;;;5046301;28;20542;-58
2022/07/24 12:46:17;;;;;;;3.42;2.53;;;;;;;;;;5046541;28;20278;-57
2022/07/24 12:49:03;;;;;;;4.20;2.45;;;;;;;;;;5029415;28;20600;-57
2022/07/24 12:51:45;;;;;;;6.10;2.58;;;;;;;;;;5032579;28;20592;-58
2022/07/24 12:54:15;;;;;;;3.60;2.60;;;;;;;;;;5030415;28;20270;-58
2022/07/24 12:56:41;;;;;;;7.43;2.75;;;;;;;;;;5032758;28;20207;-58
2022/07/24 12:59:07;;;;;;;5.15;2.35;;;;;;;;;;5040866;28;20195;-58
2022/07/24 13:01:47;;;;;;;4.30;2.30;;;;;;;;;;5041299;28;20253;-57
2022/07/24 13:04:16;;;;;;;4.93;2.28;;;;;;;;;;5030505;28;20654;-56
2022/07/24 13:06:43;;;;;;;6.00;2.70;;;;;;;;;;5031895;28;20191;-58
2022/07/24 13:09:11;;;;;;;3.50;2.50;;;;;;;;;;5033097;28;20234;-57
2022/07/24 13:11:37;;;;;;;2.97;2.20;;;;;;;;;;5041531;28;20628;-58
2022/07/24 13:14:05;;;;;;;2.53;2.08;;;;;;;;;;5044759;28;20253;-58
2022/07/24 13:16:32;;;;;;;3.20;2.30;;;;;;;;;;5030446;28;20246;-58
2022/07/24 13:18:59;;;;;;;3.33;2.50;;;;;;;;;;5045087;28;20263;-58
2022/07/24 13:21:26;;;;;;;4.68;2.33;;;;;;;;;;5050794;28;20632;-57
2022/07/24 13:23:52;;;;;;;6.20;2.83;;;;;;;;;;5039375;28;20211;-57
2022/07/24 13:26:19;;;;;;;7.53;2.47;;;;;;;;;;5031026;28;20709;-59
2022/07/24 13:28:45;;;;;;;6.57;1.95;;;;;;;;;;5029409;28;20179;-59
2022/07/24 13:31:12;;;;;;;3.13;2.33;;;;;;;;;;5045418;28;20183;-59
2022/07/24 13:33:38;;;;;;;6.45;2.55;;;;;;;;;;5038621;28;20206;-59
2022/07/24 13:36:04;;;;;;;3.75;2.13;;;;;;;;;;5030017;28;20242;-58
2022/07/24 13:38:31;;;;;;;4.28;1.90;;;;;;;;;;5030307;28;20191;-58
2022/07/24 13:40:57;;;;;;;3.45;2.45;;;;;;;;;;5032981;28;20192;-58
2022/07/24 13:43:23;;;;;;;3.13;2.35;;;;;;;;;;5030079;28;20196;-58
2022/07/24 13:45:51;;;;;;;2.95;2.47;;;;;;;;;;5032378;28;20179;-59
2022/07/24 13:48:18;;;;;;;4.30;2.30;;;;;;;;;;5029296;28;20286;-60
2022/07/24 13:50:44;;;;;;;4.88;2.00;;;;;;;;;;5037080;28;20194;-59
2022/07/24 13:53:11;;;;;;;2.88;1.90;;;;;;;;;;5044614;28;20190;-59
2022/07/24 13:55:37;;;;;;;3.53;2.40;;;;;;;;;;5041978;28;20218;-60
2022/07/24 13:58:03;;;;;;;4.75;2.40;;;;;;;;;;5045822;28;20670;-58
2022/07/24 14:00:29;;;;;;;2.72;2.30;;;;;;;;;;5032975;28;20195;-58
2022/07/24 14:02:55;;;;;;;3.83;2.40;;;;;;;;;;5032740;28;20205;-58
2022/07/24 14:05:25;;;;;;;8.68;2.42;;;;;;;;;;5031677;28;20301;-58
2022/07/24 14:07:52;;;;;;;3.13;2.03;;;;;;;;;;5047292;28;20219;-58
2022/07/24 14:10:20;;;;;;;7.05;2.25;;;;;;;;;;5035218;28;20270;-58
2022/07/24 14:12:46;;;;;;;4.80;2.50;;;;;;;;;;5033423;28;20175;-58
2022/07/24 14:15:12;;;;;;;3.65;2.03;;;;;;;;;;5035272;28;20270;-59
2022/07/24 14:17:39;;;;;;;4.78;1.95;;;;;;;;;;5052012;28;20263;-58
2022/07/24 14:20:07;;;;;;;3.65;1.98;;;;;;;;;;5034805;28;20670;-58
2022/07/24 14:22:34;;;;;;;3.80;2.00;;;;;;;;;;5030667;28;20186;-58
2022/07/24 14:25:00;;;;;;;3.50;2.00;;;;;;;;;;5033190;28;20245;-59
2022/07/24 14:27:27;;;;;;;3.05;1.90;;;;;;;;;;5033715;28;20274;-59
2022/07/24 14:29:53;;;;;;;5.10;2.15;;;;;;;;;;5032082;28;20233;-59
2022/07/24 14:32:20;;;;;;;3.92;2.10;;;;;;;;;;5036743;28;20179;-59
2022/07/24 14:34:46;;;;;;;6.32;2.20;;;;;;;;;;5034020;28;20209;-62
2022/07/24 14:37:12;;;;;;;2.83;2.00;;;;;;;;;;5033136;28;20235;-59
2022/07/24 14:39:38;;;;;;;4.60;1.98;;;;;;;;;;5032722;28;20191;-59